createdAt,value
2019-03-09T00:01:08.507Z,98210.53
2019-03-09T00:03:35.402Z,98205.31
2019-03-09T00:06:02.238Z,98207.91
2019-03-09T00:08:28.929Z,98202.70
2019-03-09T00:10:55.468Z,98201.38
2019-03-09T00:13:22.009Z,98192.33
2019-03-09T00:15:48.490Z,98193.14
2019-03-09T00:18:15.608Z,98194.38
2019-03-09T00:20:42.193Z,98202.28
2019-03-09T00:23:29.373Z,98201.78
2019-03-09T00:26:18.419Z,98190.95
2019-03-09T00:28:50.947Z,98190.09
2019-03-09T00:31:43.023Z,98191.36
2019-03-09T00:34:09.546Z,98187.53
2019-03-09T00:36:36.448Z,98184.40
2019-03-09T00:39:04.338Z,98177.52
2019-03-09T00:41:30.859Z,98171.43
2019-03-09T00:43:57.667Z,98161.41
2019-03-09T00:46:24.263Z,98172.27
2019-03-09T00:48:50.788Z,98166.17
2019-03-09T00:51:17.430Z,98173.98
2019-03-09T00:53:44.220Z,98166.20
2019-03-09T00:56:12.310Z,98164.91
2019-03-09T00:58:39.057Z,98163.12
2019-03-09T01:01:05.958Z,98161.28
2019-03-09T01:03:32.456Z,98159.14
2019-03-09T01:05:58.953Z,98151.31
2019-03-09T01:08:26.055Z,98156.55
2019-03-09T01:10:53.162Z,98145.28
2019-03-09T01:13:19.972Z,98128.29
2019-03-09T01:15:46.771Z,98130.03
2019-03-09T01:18:13.698Z,98109.99
2019-03-09T01:20:40.367Z,98116.10
2019-03-09T01:23:07.139Z,98113.48
2019-03-09T01:25:33.987Z,98099.21
2019-03-09T01:28:01.519Z,98088.31
2019-03-09T01:30:28.365Z,98079.59
2019-03-09T01:32:55.192Z,98074.02
2019-03-09T01:35:21.996Z,98065.36
2019-03-09T01:37:49.040Z,98048.48
2019-03-09T01:40:16.093Z,98041.02
2019-03-09T01:42:42.899Z,98037.59
2019-03-09T01:45:10.393Z,98035.45
2019-03-09T01:47:37.231Z,98026.33
2019-03-09T01:50:04.463Z,98029.34
2019-03-09T01:52:31.292Z,98010.96
2019-03-09T01:54:58.213Z,98014.84
2019-03-09T01:57:25.052Z,98002.67
2019-03-09T01:59:51.830Z,97995.69
2019-03-09T02:02:19.002Z,97990.41
2019-03-09T02:04:46.034Z,97978.25
2019-03-09T02:07:13.923Z,97987.30
2019-03-09T02:09:41.004Z,97972.97
2019-03-09T02:12:07.845Z,97962.97
2019-03-09T02:14:34.723Z,97955.15
2019-03-09T02:17:01.251Z,97954.69
2019-03-09T02:19:28.907Z,97947.77
2019-03-09T02:21:55.427Z,97945.55
2019-03-09T02:24:22.086Z,97946.86
2019-03-09T02:26:48.909Z,97943.37
2019-03-09T02:29:15.453Z,97940.65
2019-03-09T02:31:42.104Z,97936.24
2019-03-09T02:34:08.842Z,97927.91
2019-03-09T02:36:35.345Z,97935.20
2019-03-09T02:39:14.822Z,97918.67
2019-03-09T02:41:41.586Z,97927.80
2019-03-09T02:44:08.182Z,97916.03
2019-03-09T02:46:34.840Z,97906.52
2019-03-09T02:49:01.622Z,97898.74
2019-03-09T02:51:28.213Z,97898.27
2019-03-09T02:53:55.768Z,97896.38
2019-03-09T02:56:22.485Z,97877.78
2019-03-09T02:58:49.025Z,97876.36
2019-03-09T03:01:44.216Z,97862.00
2019-03-09T03:04:10.696Z,97862.36
2019-03-09T03:06:37.171Z,97845.91
2019-03-09T03:09:04.758Z,97848.13
2019-03-09T03:11:31.189Z,97835.98
2019-03-09T03:13:58.359Z,97838.48
2019-03-09T03:16:30.037Z,97836.04
2019-03-09T03:18:56.909Z,97834.35
2019-03-09T03:21:23.698Z,97823.00
2019-03-09T03:23:50.226Z,97831.61
2019-03-09T03:26:16.963Z,97817.27
2019-03-09T03:28:43.893Z,97810.84
2019-03-09T03:31:10.439Z,97804.77
2019-03-09T03:33:37.005Z,97804.28
2019-03-09T03:36:03.626Z,97792.03
2019-03-09T03:38:32.411Z,97788.53
2019-03-09T03:40:58.986Z,97769.82
2019-03-09T03:43:25.586Z,97775.38
2019-03-09T03:45:52.350Z,97760.92
2019-03-09T03:48:20.187Z,97759.20
2019-03-09T03:50:46.864Z,97762.16
2019-03-09T03:53:13.310Z,97745.98
2019-03-09T03:55:39.916Z,97722.72
2019-03-09T03:58:07.608Z,97737.03
2019-03-09T04:00:34.230Z,97749.72
2019-03-09T04:03:00.724Z,97733.94
2019-03-09T04:05:27.234Z,97728.72
2019-03-09T04:07:54.431Z,97740.91
2019-03-09T04:10:21.422Z,97739.50
2019-03-09T04:12:48.121Z,97740.88
2019-03-09T04:15:15.090Z,97730.02
2019-03-09T04:17:41.805Z,97707.27
2019-03-09T04:20:08.640Z,97710.85
2019-03-09T04:22:35.273Z,97707.47
2019-03-09T04:25:02.269Z,97700.08
2019-03-09T04:27:28.852Z,97706.23
2019-03-09T04:29:55.594Z,97710.89
2019-03-09T04:32:22.220Z,97715.78
2019-03-09T04:34:48.851Z,97695.75
2019-03-09T04:37:15.447Z,97715.00
2019-03-09T04:39:43.210Z,97711.16
2019-03-09T04:42:09.898Z,97718.61
2019-03-09T04:44:36.809Z,97716.63
2019-03-09T04:47:03.592Z,97713.34
2019-03-09T04:49:30.343Z,97704.88
2019-03-09T04:51:56.961Z,97720.63
2019-03-09T04:54:23.600Z,97714.20
2019-03-09T04:56:50.608Z,97709.61
2019-03-09T04:59:17.528Z,97716.16
2019-03-09T05:01:44.241Z,97706.30
2019-03-09T05:04:45.450Z,97709.52
2019-03-09T05:07:27.431Z,97704.30
2019-03-09T05:10:15.708Z,97703.92
2019-03-09T05:12:42.686Z,97684.87
2019-03-09T05:15:10.116Z,97686.42
2019-03-09T05:17:36.927Z,97681.75
2019-03-09T05:20:04.208Z,97678.32
2019-03-09T05:22:30.993Z,97664.44
2019-03-09T05:24:57.590Z,97681.43
2019-03-09T05:27:25.044Z,97675.39
2019-03-09T05:29:52.288Z,97674.11
2019-03-09T05:32:19.128Z,97674.17
2019-03-09T05:34:45.767Z,97671.63
2019-03-09T05:37:12.293Z,97695.46
2019-03-09T05:39:38.912Z,97692.85
2019-03-09T05:42:05.481Z,97698.98
2019-03-09T05:44:32.582Z,97702.89
2019-03-09T05:46:59.542Z,97698.18
2019-03-09T05:49:26.127Z,97692.22
2019-03-09T05:52:46.239Z,97695.73
2019-03-09T05:55:18.048Z,97689.25
2019-03-09T05:57:45.990Z,97690.97
2019-03-09T06:00:14.993Z,97687.48
2019-03-09T06:02:42.766Z,97684.83
2019-03-09T06:05:33.420Z,97699.56
2019-03-09T06:08:00.819Z,97697.34
2019-03-09T06:10:27.788Z,97701.14
2019-03-09T06:12:56.353Z,97701.59
2019-03-09T06:15:25.135Z,97687.20
2019-03-09T06:17:52.271Z,97706.23
2019-03-09T06:20:20.075Z,97719.62
2019-03-09T06:22:47.852Z,97723.47
2019-03-09T06:25:15.437Z,97724.30
2019-03-09T06:27:42.740Z,97737.75
2019-03-09T06:30:12.219Z,97720.69
2019-03-09T06:33:16.670Z,97727.59
2019-03-09T06:35:44.692Z,97755.78
2019-03-09T06:38:34.851Z,97749.15
2019-03-09T06:41:13.723Z,97753.92
2019-03-09T06:43:40.564Z,97746.45
2019-03-09T06:46:07.633Z,97738.63
2019-03-09T06:48:34.910Z,97748.55
2019-03-09T06:51:02.236Z,97738.41
2019-03-09T06:53:29.512Z,97750.82
2019-03-09T06:55:56.417Z,97758.13
2019-03-09T06:58:25.489Z,97743.85
2019-03-09T07:00:54.210Z,97751.13
2019-03-09T07:03:22.364Z,97756.35
2019-03-09T07:05:50.659Z,97766.62
2019-03-09T07:08:18.924Z,97775.17
2019-03-09T07:11:07.722Z,97770.27
2019-03-09T07:14:27.998Z,97784.00
2019-03-09T07:18:36.814Z,97769.09
2019-03-09T07:20:12.935Z,97776.23
2019-03-09T07:23:38.600Z,97793.09
2019-03-09T07:26:17.023Z,97794.22
2019-03-09T07:29:07.620Z,97782.73
2019-03-09T07:31:44.114Z,97782.50
2019-03-09T07:35:10.040Z,97775.77
2019-03-09T07:41:14.901Z,97775.45
2019-03-09T07:48:04.681Z,97787.50
2019-03-09T07:50:25.885Z,97790.27
2019-03-09T07:52:53.199Z,97797.22
2019-03-09T07:55:20.040Z,97799.63
2019-03-09T07:57:46.878Z,97806.03
2019-03-09T08:00:15.651Z,97802.72
2019-03-09T08:02:43.752Z,97809.34
2019-03-09T08:05:11.567Z,97809.57
2019-03-09T08:07:38.553Z,97815.81
2019-03-09T08:10:07.561Z,97804.90
2019-03-09T08:12:34.565Z,97822.22
2019-03-09T08:15:01.591Z,97822.13
2019-03-09T08:17:46.571Z,97818.74
2019-03-09T08:20:13.600Z,97818.52
2019-03-09T08:22:43.855Z,97832.08
2019-03-09T08:25:10.958Z,97832.34
2019-03-09T08:27:39.222Z,97844.94
2019-03-09T08:30:15.127Z,97848.21
2019-03-09T08:32:43.210Z,97851.98
2019-03-09T08:35:10.962Z,97848.46
2019-03-09T08:37:38.091Z,97860.97
2019-03-09T08:40:05.600Z,97829.05
2019-03-09T08:42:32.503Z,97833.87
2019-03-09T08:44:59.565Z,97840.47
2019-03-09T08:47:27.655Z,97831.89
2019-03-09T08:50:23.027Z,97856.80
2019-03-09T08:53:03.648Z,97859.25
2019-03-09T08:55:48.736Z,97848.63
2019-03-09T08:58:28.441Z,97856.38
2019-03-09T09:01:04.856Z,97843.95
2019-03-09T09:03:53.436Z,97845.75
2019-03-09T09:06:20.905Z,97827.55
2019-03-09T09:09:11.712Z,97840.56
2019-03-09T09:11:38.390Z,97844.32
2019-03-09T09:14:05.002Z,97836.56
2019-03-09T09:16:33.801Z,97841.52
2019-03-09T09:19:03.527Z,97849.94
2019-03-09T09:21:30.216Z,97844.64
2019-03-09T09:24:05.891Z,97841.64
2019-03-09T09:26:35.786Z,97845.98
2019-03-09T09:32:26.917Z,97838.27
2019-03-09T09:34:57.205Z,97841.23
2019-03-09T09:37:25.206Z,97860.41
2019-03-09T09:39:54.152Z,97854.84
2019-03-09T09:42:26.234Z,97834.16
2019-03-09T09:44:54.783Z,97847.95
2019-03-09T09:47:22.866Z,97854.45
2019-03-09T09:49:54.519Z,97847.77
2019-03-09T09:52:30.792Z,97834.06
2019-03-09T09:54:59.924Z,97829.85
2019-03-09T09:57:29.929Z,97844.52
2019-03-09T10:00:01.806Z,97835.59
2019-03-09T10:02:29.852Z,97820.10
2019-03-09T10:04:59.532Z,97815.89
2019-03-09T10:07:29.266Z,97829.58
2019-03-09T10:09:57.672Z,97830.13
2019-03-09T10:12:26.115Z,97854.81
2019-03-09T10:14:58.492Z,97853.55
2019-03-09T10:17:34.608Z,97859.36
2019-03-09T10:20:07.904Z,97849.88
2019-03-09T10:22:48.979Z,97846.75
2019-03-09T10:25:30.723Z,97845.97
2019-03-09T10:28:00.387Z,97850.81
2019-03-09T10:30:33.182Z,97859.89
2019-03-09T10:33:02.739Z,97876.97
2019-03-09T10:35:33.988Z,97884.67
2019-03-09T10:38:04.568Z,97891.13
2019-03-09T10:40:37.714Z,97895.75
2019-03-09T10:43:12.914Z,97909.03
2019-03-09T10:45:45.188Z,97908.45
2019-03-09T10:48:16.085Z,97902.91
2019-03-09T10:51:00.099Z,97899.42
2019-03-09T10:53:28.782Z,97911.54
2019-03-09T10:56:04.506Z,97892.20
2019-03-09T10:58:42.185Z,97899.05
2019-03-09T11:01:12.483Z,97894.73
2019-03-09T11:03:47.880Z,97899.26
2019-03-09T11:06:19.733Z,97890.36
2019-03-09T11:08:48.231Z,97896.73
2019-03-09T11:11:19.582Z,97889.36
2019-03-09T11:13:52.229Z,97900.73
2019-03-09T11:16:21.585Z,97913.91
2019-03-09T11:18:54.957Z,97894.23
2019-03-09T11:21:27.154Z,97896.56
2019-03-09T11:24:02.959Z,97891.52
2019-03-09T11:26:32.463Z,97886.55
2019-03-09T11:29:10.134Z,97890.49
2019-03-09T11:31:42.403Z,97878.28
2019-03-09T11:34:23.835Z,97873.73
2019-03-09T11:36:51.324Z,97887.13
2019-03-09T11:39:20.568Z,97877.73
2019-03-09T11:41:47.626Z,97890.64
2019-03-09T11:44:15.511Z,97898.38
2019-03-09T11:46:45.485Z,97883.98
2019-03-09T11:49:13.834Z,97887.58
2019-03-09T11:51:42.007Z,97875.00
2019-03-09T11:54:15.703Z,97859.09
2019-03-09T11:56:45.907Z,97867.69
2019-03-09T11:59:13.379Z,97849.02
2019-03-09T12:01:43.447Z,97864.06
2019-03-09T12:04:11.524Z,97860.65
2019-03-09T12:06:42.386Z,97845.23
2019-03-09T12:09:11.792Z,97866.98
2019-03-09T12:11:51.570Z,97856.63
2019-03-09T12:14:18.716Z,97859.84
2019-03-09T12:16:48.270Z,97862.64
2019-03-09T12:19:15.260Z,97862.13
2019-03-09T12:21:42.224Z,97855.37
2019-03-09T12:24:16.457Z,97855.02
2019-03-09T12:26:38.030Z,97846.95
2019-03-09T12:29:04.882Z,97851.95
2019-03-09T12:31:33.680Z,97863.78
2019-03-09T12:34:01.738Z,97852.34
2019-03-09T12:36:28.862Z,97853.78
2019-03-09T12:38:55.841Z,97845.61
2019-03-09T12:41:23.509Z,97834.37
2019-03-09T12:43:50.396Z,97844.89
2019-03-09T12:46:17.176Z,97842.83
2019-03-09T12:48:43.937Z,97838.78
2019-03-09T12:51:10.906Z,97849.09
2019-03-09T12:53:37.914Z,97837.45
2019-03-09T12:56:04.971Z,97854.17
2019-03-09T12:58:31.787Z,97846.20
2019-03-09T13:00:58.671Z,97833.90
2019-03-09T13:03:25.515Z,97834.12
2019-03-09T13:05:52.965Z,97835.61
2019-03-09T13:08:19.466Z,97824.30
2019-03-09T13:10:46.262Z,97819.31
2019-03-09T13:13:14.253Z,97814.18
2019-03-09T13:15:41.195Z,97813.25
2019-03-09T13:18:09.872Z,97777.42
2019-03-09T13:20:38.872Z,97792.98
2019-03-09T13:23:08.093Z,97785.08
2019-03-09T13:25:42.454Z,97775.85
2019-03-09T13:28:15.241Z,97763.77
2019-03-09T13:30:42.672Z,97760.34
2019-03-09T13:33:09.546Z,97751.38
2019-03-09T13:35:38.432Z,97754.49
2019-03-09T13:38:05.151Z,97749.36
2019-03-09T13:40:31.853Z,97735.15
2019-03-09T13:42:58.572Z,97722.05
2019-03-09T13:45:25.766Z,97739.06
2019-03-09T13:47:52.633Z,97728.59
2019-03-09T13:50:22.441Z,97706.73
2019-03-09T13:52:49.265Z,97701.60
2019-03-09T13:55:16.332Z,97696.52
2019-03-09T13:57:43.157Z,97688.89
2019-03-09T14:00:11.099Z,97705.78
2019-03-09T14:02:38.158Z,97705.56
2019-03-09T14:05:05.301Z,97693.85
2019-03-09T14:07:32.144Z,97685.64
2019-03-09T14:09:58.971Z,97672.15
2019-03-09T14:12:25.580Z,97666.07
2019-03-09T14:14:52.249Z,97669.64
2019-03-09T14:17:19.314Z,97665.02
2019-03-09T14:19:46.157Z,97645.34
2019-03-09T14:22:13.067Z,97638.44
2019-03-09T14:24:40.062Z,97638.70
2019-03-09T14:27:07.609Z,97622.91
2019-03-09T14:29:34.356Z,97601.45
2019-03-09T14:32:01.094Z,97594.84
2019-03-09T14:34:30.018Z,97570.33
2019-03-09T14:36:56.829Z,97550.49
2019-03-09T14:39:23.420Z,97538.64
2019-03-09T14:41:50.404Z,97533.06
2019-03-09T14:44:17.138Z,97525.48
2019-03-09T14:46:44.142Z,97519.84
2019-03-09T14:49:11.132Z,97516.98
2019-03-09T14:51:37.912Z,97493.41
2019-03-09T14:54:05.084Z,97487.02
2019-03-09T14:56:31.892Z,97487.75
2019-03-09T14:58:58.938Z,97486.78
2019-03-09T15:01:25.864Z,97487.45
2019-03-09T15:03:52.611Z,97511.14
2019-03-09T15:06:19.539Z,97527.55
2019-03-09T15:08:46.397Z,97507.10
2019-03-09T15:11:14.280Z,97504.56
2019-03-09T15:13:41.314Z,97497.77
2019-03-09T15:16:08.810Z,97495.81
2019-03-09T15:18:35.426Z,97478.73
2019-03-09T15:21:02.394Z,97478.98
2019-03-09T15:23:30.151Z,97473.72
2019-03-09T15:25:56.891Z,97478.27
2019-03-09T15:28:23.450Z,97460.47
2019-03-09T15:30:53.422Z,97443.62
2019-03-09T15:33:21.768Z,97421.20
2019-03-09T15:35:48.990Z,97401.69
2019-03-09T15:38:15.689Z,97384.05
2019-03-09T15:40:42.870Z,97391.73
2019-03-09T15:43:09.700Z,97372.63
2019-03-09T15:45:37.532Z,97348.59
2019-03-09T15:48:04.515Z,97332.84
2019-03-09T15:50:31.854Z,97328.29
2019-03-09T15:52:59.017Z,97321.16
2019-03-09T15:55:25.724Z,97314.83
2019-03-09T15:57:52.450Z,97312.73
2019-03-09T16:00:20.273Z,97307.09
2019-03-09T16:02:47.130Z,97296.05
2019-03-09T16:05:13.858Z,97287.97
2019-03-09T16:07:40.679Z,97293.44
2019-03-09T16:10:08.937Z,97291.62
2019-03-09T16:12:36.480Z,97325.97
2019-03-09T16:15:04.608Z,97313.23
2019-03-09T16:17:31.849Z,97325.23
2019-03-09T16:19:59.448Z,97343.72
2019-03-09T16:22:26.054Z,97337.03
2019-03-09T16:24:52.935Z,97345.56
2019-03-09T16:27:20.603Z,97359.09
2019-03-09T16:29:47.898Z,97349.40
2019-03-09T16:32:14.808Z,97345.41
2019-03-09T16:34:41.452Z,97334.22
2019-03-09T16:37:08.645Z,97333.13
2019-03-09T16:39:35.372Z,97328.22
2019-03-09T16:42:02.300Z,97316.40
2019-03-09T16:44:28.980Z,97332.16
2019-03-09T16:46:58.706Z,97321.45
2019-03-09T16:49:25.715Z,97315.64
2019-03-09T16:51:52.278Z,97307.86
2019-03-09T16:54:19.044Z,97318.72
2019-03-09T16:56:46.291Z,97315.91
2019-03-09T16:59:13.413Z,97312.89
2019-03-09T17:01:40.042Z,97332.67
2019-03-09T17:04:06.712Z,97364.30
2019-03-09T17:06:33.433Z,97378.84
2019-03-09T17:09:00.151Z,97409.81
2019-03-09T17:11:27.135Z,97400.80
2019-03-09T17:13:53.833Z,97432.48
2019-03-09T17:16:20.514Z,97395.78
2019-03-09T17:18:47.217Z,97423.73
2019-03-09T17:21:14.049Z,97440.33
2019-03-09T17:23:40.994Z,97411.72
2019-03-09T17:26:07.687Z,97412.58
2019-03-09T17:28:34.380Z,97417.94
2019-03-09T17:31:01.102Z,97420.27
2019-03-09T17:33:27.712Z,97427.94
2019-03-09T17:35:54.646Z,97422.91
2019-03-09T17:38:21.300Z,97426.98
2019-03-09T17:40:47.871Z,97424.12
2019-03-09T17:43:14.399Z,97425.23
2019-03-09T17:45:40.903Z,97414.10
2019-03-09T17:48:08.797Z,97444.66
2019-03-09T17:50:36.354Z,97445.92
2019-03-09T17:53:07.254Z,97448.86
2019-03-09T17:55:34.960Z,97470.72
2019-03-09T17:58:02.606Z,97475.34
2019-03-09T18:00:42.027Z,97482.28
2019-03-09T18:03:03.663Z,97499.63
2019-03-09T18:05:32.383Z,97514.56
2019-03-09T18:08:00.071Z,97696.07
2019-03-09T18:10:32.719Z,97738.77
2019-03-09T18:13:00.678Z,97721.36
2019-03-09T18:15:28.870Z,97712.29
2019-03-09T18:17:55.688Z,97692.42
2019-03-09T18:20:24.271Z,97656.88
2019-03-09T18:22:50.930Z,97649.48
2019-03-09T18:25:17.482Z,97673.20
2019-03-09T18:27:44.102Z,97674.81
2019-03-09T18:30:10.979Z,97693.73
2019-03-09T18:32:37.630Z,97689.70
2019-03-09T18:35:04.645Z,97698.98
2019-03-09T18:37:31.705Z,97709.67
2019-03-09T18:39:58.418Z,97720.01
2019-03-09T18:42:25.114Z,97710.27
2019-03-09T18:44:52.160Z,97722.34
2019-03-09T18:47:19.189Z,97729.54
2019-03-09T18:49:45.800Z,97739.94
2019-03-09T18:52:12.541Z,97737.71
2019-03-09T18:54:39.117Z,97747.70
2019-03-09T18:57:06.333Z,97761.94
2019-03-09T18:59:32.934Z,97764.48
2019-03-09T19:02:00.817Z,97777.53
2019-03-09T19:04:27.352Z,97782.70
2019-03-09T19:06:55.095Z,97815.69
2019-03-09T19:09:23.300Z,97833.88
2019-03-09T19:11:50.026Z,97830.45
2019-03-09T19:14:16.673Z,97833.47
2019-03-09T19:16:44.224Z,97843.46
2019-03-09T19:19:10.907Z,97846.42
2019-03-09T19:21:37.531Z,97864.23
2019-03-09T19:24:04.299Z,97863.32
2019-03-09T19:26:30.913Z,97872.89
2019-03-09T19:28:58.649Z,97879.83
2019-03-09T19:31:25.386Z,97890.40
2019-03-09T19:33:52.273Z,97889.20
2019-03-09T19:36:18.827Z,97897.94
2019-03-09T19:38:45.937Z,97907.56
2019-03-09T19:41:12.465Z,97925.00
2019-03-09T19:43:39.086Z,97930.66
2019-03-09T19:46:05.775Z,97942.85
2019-03-09T19:48:32.683Z,97944.58
2019-03-09T19:50:59.439Z,97956.77
2019-03-09T19:53:25.973Z,97965.48
2019-03-09T19:55:52.633Z,97953.34
2019-03-09T19:58:19.728Z,97977.23
2019-03-09T20:00:46.316Z,97970.69
2019-03-09T20:03:12.959Z,97975.86
2019-03-09T20:05:41.568Z,97977.56
2019-03-09T20:08:29.529Z,97997.63
2019-03-09T20:10:56.690Z,98015.91
2019-03-09T20:13:23.334Z,98022.83
2019-03-09T20:15:51.979Z,98035.45
2019-03-09T20:18:18.517Z,98042.00
2019-03-09T20:20:46.160Z,98050.27
2019-03-09T20:23:13.016Z,98048.12
2019-03-09T20:25:39.831Z,98058.03
2019-03-09T20:28:07.038Z,98059.43
2019-03-09T20:30:33.647Z,98066.88
2019-03-09T20:33:00.540Z,98068.13
2019-03-09T20:35:27.244Z,98076.72
2019-03-09T20:37:57.475Z,98088.94
2019-03-09T20:40:29.000Z,98090.28
2019-03-09T20:42:58.268Z,98069.91
2019-03-09T20:45:27.459Z,98087.25
2019-03-09T20:47:56.220Z,98089.45
2019-03-09T20:50:25.809Z,98102.47
2019-03-09T20:52:55.663Z,98104.70
2019-03-09T20:55:23.899Z,98111.63
2019-03-09T20:57:53.109Z,98110.73
2019-03-09T21:00:22.045Z,98113.41
2019-03-09T21:02:52.076Z,98112.13
2019-03-09T21:05:20.633Z,98106.06
2019-03-09T21:07:48.290Z,98109.13
2019-03-09T21:10:17.959Z,98119.61
2019-03-09T21:13:00.649Z,98105.27
2019-03-09T21:15:36.021Z,98112.20
2019-03-09T21:18:06.822Z,98114.44
2019-03-09T21:20:34.379Z,98105.77
2019-03-09T21:23:01.465Z,98121.87
2019-03-09T21:25:29.727Z,98124.94
2019-03-09T21:27:56.547Z,98127.52
2019-03-09T21:30:25.885Z,98137.06
2019-03-09T21:32:54.758Z,98137.09
2019-03-09T21:35:22.778Z,98147.50
2019-03-09T21:37:49.357Z,98141.41
2019-03-09T21:40:16.382Z,98143.11
2019-03-09T21:42:43.206Z,98137.90
2019-03-09T21:45:10.069Z,98149.19
2019-03-09T21:47:36.878Z,98140.95
2019-03-09T21:50:03.936Z,98151.83
2019-03-09T21:52:31.619Z,98163.52
2019-03-09T21:54:59.508Z,98161.41
2019-03-09T21:57:27.315Z,98163.16
2019-03-09T21:59:54.075Z,98155.38
2019-03-09T22:02:20.684Z,98153.71
2019-03-09T22:04:47.654Z,98154.13
2019-03-09T22:07:14.591Z,98161.95
2019-03-09T22:09:41.616Z,98165.91
2019-03-09T22:12:08.389Z,98157.17
2019-03-09T22:14:35.047Z,98153.25
2019-03-09T22:17:01.605Z,98159.77
2019-03-09T22:19:28.272Z,98164.11
2019-03-09T22:21:54.853Z,98148.94
2019-03-09T22:24:22.458Z,98151.93
2019-03-09T22:26:49.582Z,98157.94
2019-03-09T22:29:16.368Z,98144.51
2019-03-09T22:31:43.110Z,98152.78
2019-03-09T22:34:09.683Z,98143.28
2019-03-09T22:36:36.508Z,98140.58
2019-03-09T22:39:04.298Z,98155.38
2019-03-09T22:41:30.813Z,98164.98
2019-03-09T22:43:57.842Z,98166.26
2019-03-09T22:46:24.718Z,98168.00
2019-03-09T22:48:51.254Z,98171.92
2019-03-09T22:51:18.076Z,98163.72
2019-03-09T22:53:44.613Z,98147.69
2019-03-09T22:56:11.224Z,98146.84
2019-03-09T22:58:37.877Z,98140.73
2019-03-09T23:01:04.703Z,98163.78
2019-03-09T23:03:31.741Z,98146.86
2019-03-09T23:05:58.368Z,98144.69
2019-03-09T23:08:25.170Z,98155.95
2019-03-09T23:10:51.788Z,98157.73
2019-03-09T23:13:18.360Z,98155.14
2019-03-09T23:15:44.977Z,98155.13
2019-03-09T23:18:11.520Z,98174.22
2019-03-09T23:20:39.533Z,98171.63
2019-03-09T23:23:06.374Z,98175.07
2019-03-09T23:25:33.147Z,98177.25
2019-03-09T23:27:59.769Z,98177.67
2019-03-09T23:30:26.305Z,98182.44
2019-03-09T23:32:54.088Z,98184.12
2019-03-09T23:35:20.848Z,98187.14
2019-03-09T23:37:47.798Z,98178.87
2019-03-09T23:40:14.618Z,98179.28
2019-03-09T23:42:41.176Z,98174.91
2019-03-09T23:45:09.227Z,98175.75
2019-03-09T23:47:36.198Z,98172.65
2019-03-09T23:50:03.241Z,98171.75
2019-03-09T23:52:29.945Z,98168.23
2019-03-09T23:54:56.553Z,98168.17
2019-03-09T23:57:23.125Z,98171.63
2019-03-09T23:59:49.860Z,98169.41
